createdAt,value
2023-01-09T00:00:18.379Z,18.14
2023-01-09T00:00:49.822Z,18.14
2023-01-09T00:01:21.214Z,18.13
2023-01-09T00:01:52.608Z,18.16
2023-01-09T00:02:24.061Z,18.12
2023-01-09T00:02:55.509Z,18.10
2023-01-09T00:03:26.905Z,18.13
2023-01-09T00:03:58.331Z,18.17
2023-01-09T00:04:29.736Z,18.18
2023-01-09T00:05:01.179Z,18.17
2023-01-09T00:05:32.583Z,18.17
2023-01-09T00:06:04.006Z,18.22
2023-01-09T00:06:35.407Z,18.15
2023-01-09T00:07:06.832Z,18.15
2023-01-09T00:07:38.314Z,18.10
2023-01-09T00:08:09.749Z,18.11
2023-01-09T00:08:41.185Z,18.17
2023-01-09T00:09:12.583Z,18.19
2023-01-09T00:09:43.981Z,18.16
2023-01-09T00:10:15.382Z,18.19
2023-01-09T00:10:46.786Z,18.16
2023-01-09T00:11:18.191Z,18.16
2023-01-09T00:11:49.618Z,18.17
2023-01-09T00:12:21.024Z,18.16
2023-01-09T00:12:52.492Z,18.18
2023-01-09T00:13:23.923Z,18.23
2023-01-09T00:13:55.326Z,18.22
2023-01-09T00:14:26.726Z,18.22
2023-01-09T00:14:58.130Z,18.23
2023-01-09T00:15:29.546Z,18.23
2023-01-09T00:16:00.947Z,18.16
2023-01-09T00:16:32.412Z,18.19
2023-01-09T00:17:03.927Z,18.20
2023-01-09T00:17:35.380Z,18.22
2023-01-09T00:18:06.843Z,18.20
2023-01-09T00:18:38.242Z,18.23
2023-01-09T00:19:09.643Z,18.22
2023-01-09T00:19:41.060Z,18.21
2023-01-09T00:20:12.496Z,18.23
2023-01-09T00:20:43.903Z,18.23
2023-01-09T00:21:15.334Z,18.22
2023-01-09T00:21:46.765Z,18.20
2023-01-09T00:22:18.189Z,18.22
2023-01-09T00:22:49.673Z,18.22
2023-01-09T00:23:21.081Z,18.21
2023-01-09T00:23:52.479Z,18.23
2023-01-09T00:24:23.884Z,18.22
2023-01-09T00:24:55.289Z,18.23
2023-01-09T00:25:26.695Z,18.21
2023-01-09T00:25:58.102Z,18.20
2023-01-09T00:26:29.532Z,18.23
2023-01-09T00:27:00.955Z,18.19
2023-01-09T00:27:32.344Z,18.22
2023-01-09T00:28:03.826Z,18.23
2023-01-09T00:28:35.247Z,18.22
2023-01-09T00:29:06.651Z,18.23
2023-01-09T00:29:38.055Z,18.22
2023-01-09T00:30:09.586Z,18.19
2023-01-09T00:30:41.018Z,18.21
2023-01-09T00:31:12.469Z,18.22
2023-01-09T00:31:43.889Z,18.20
2023-01-09T00:32:15.291Z,18.18
2023-01-09T00:32:46.739Z,18.20
2023-01-09T00:33:18.136Z,18.18
2023-01-09T00:33:49.551Z,18.18
2023-01-09T00:34:20.955Z,18.18
2023-01-09T00:34:52.355Z,18.19
2023-01-09T00:35:23.775Z,18.18
2023-01-09T00:35:55.189Z,18.20
2023-01-09T00:36:26.602Z,18.20
2023-01-09T00:36:58.053Z,18.19
2023-01-09T00:37:29.445Z,18.19
2023-01-09T00:38:00.928Z,18.18
2023-01-09T00:38:32.344Z,18.19
2023-01-09T00:39:03.754Z,18.18
2023-01-09T00:39:35.170Z,18.17
2023-01-09T00:40:06.597Z,18.16
2023-01-09T00:40:38.001Z,18.16
2023-01-09T00:41:09.389Z,18.16
2023-01-09T00:41:40.798Z,18.17
2023-01-09T00:42:12.195Z,18.17
2023-01-09T00:42:43.594Z,18.16
2023-01-09T00:43:15.042Z,18.16
2023-01-09T00:43:46.440Z,18.16
2023-01-09T00:44:17.863Z,18.16
2023-01-09T00:44:49.287Z,18.14
2023-01-09T00:45:20.686Z,18.15
2023-01-09T00:45:52.185Z,18.15
2023-01-09T00:46:23.742Z,18.16
2023-01-09T00:46:55.174Z,18.16
2023-01-09T00:47:26.595Z,18.16
2023-01-09T00:47:58.019Z,18.16
2023-01-09T00:48:29.460Z,18.15
2023-01-09T00:49:00.863Z,18.13
2023-01-09T00:49:32.275Z,18.15
2023-01-09T00:50:03.698Z,18.16
2023-01-09T00:50:35.112Z,18.15
2023-01-09T00:51:06.501Z,18.14
2023-01-09T00:51:37.903Z,18.12
2023-01-09T00:52:09.309Z,18.13
2023-01-09T00:52:40.701Z,18.12
2023-01-09T00:53:12.110Z,18.13
2023-01-09T00:53:43.626Z,18.13
2023-01-09T00:54:15.175Z,18.13
2023-01-09T00:54:46.614Z,18.11
2023-01-09T00:55:18.012Z,18.12
2023-01-09T00:55:49.414Z,18.10
2023-01-09T00:56:20.828Z,18.12
2023-01-09T00:56:52.240Z,18.12
2023-01-09T00:57:23.644Z,18.12
2023-01-09T00:57:55.035Z,18.11
2023-01-09T00:58:26.458Z,18.09
2023-01-09T00:58:58.313Z,18.11
2023-01-09T00:59:29.715Z,18.09
2023-01-09T01:00:01.170Z,18.07
2023-01-09T01:00:32.574Z,18.09
2023-01-09T01:01:04.101Z,18.07
2023-01-09T01:01:35.679Z,18.05
2023-01-09T01:02:07.295Z,18.07
2023-01-09T01:02:38.804Z,18.08
2023-01-09T01:03:10.625Z,18.06
2023-01-09T01:03:42.055Z,18.07
2023-01-09T01:04:13.595Z,18.05
2023-01-09T01:04:45.017Z,18.05
2023-01-09T01:05:16.428Z,18.04
2023-01-09T01:05:47.831Z,18.04
2023-01-09T01:06:19.265Z,18.06
2023-01-09T01:06:50.665Z,18.05
2023-01-09T01:07:22.081Z,18.04
2023-01-09T01:07:53.485Z,18.04
2023-01-09T01:08:24.902Z,18.02
2023-01-09T01:08:56.323Z,18.03
2023-01-09T01:09:27.838Z,18.02
2023-01-09T01:09:59.241Z,18.00
2023-01-09T01:10:30.672Z,18.00
2023-01-09T01:11:02.075Z,18.02
2023-01-09T01:11:33.479Z,18.02
2023-01-09T01:12:04.875Z,17.96
2023-01-09T01:12:36.279Z,17.97
2023-01-09T01:13:07.670Z,17.91
2023-01-09T01:13:39.066Z,17.89
2023-01-09T01:14:10.575Z,17.91
2023-01-09T01:14:42.124Z,17.87
2023-01-09T01:15:13.521Z,17.92
2023-01-09T01:15:44.921Z,17.95
2023-01-09T01:16:16.393Z,17.95
2023-01-09T01:16:48.015Z,17.92
2023-01-09T01:17:19.439Z,17.89
2023-01-09T01:17:50.836Z,17.92
2023-01-09T01:18:22.239Z,17.90
2023-01-09T01:18:53.649Z,17.92
2023-01-09T01:19:25.068Z,17.87
2023-01-09T01:19:56.531Z,17.88
2023-01-09T01:20:27.942Z,17.85
2023-01-09T01:20:59.347Z,17.85
2023-01-09T01:21:30.758Z,17.88
2023-01-09T01:22:02.174Z,17.83
2023-01-09T01:22:33.574Z,17.81
2023-01-09T01:23:04.974Z,17.80
2023-01-09T01:23:36.398Z,17.78
2023-01-09T01:24:07.799Z,17.76
2023-01-09T01:24:39.222Z,17.75
2023-01-09T01:25:10.683Z,17.74
2023-01-09T01:25:42.103Z,17.81
2023-01-09T01:26:13.514Z,17.84
2023-01-09T01:26:44.926Z,17.84
2023-01-09T01:27:16.344Z,17.84
2023-01-09T01:27:47.744Z,17.81
2023-01-09T01:28:19.153Z,17.84
2023-01-09T01:28:50.559Z,17.77
2023-01-09T01:29:21.960Z,17.78
2023-01-09T01:29:53.383Z,17.78
2023-01-09T01:30:24.889Z,17.78
2023-01-09T01:30:56.312Z,17.74
2023-01-09T01:31:27.758Z,17.73
2023-01-09T01:31:59.156Z,17.72
2023-01-09T01:32:30.572Z,17.74
2023-01-09T01:33:01.973Z,17.72
2023-01-09T01:33:33.398Z,17.71
2023-01-09T01:34:04.800Z,17.73
2023-01-09T01:34:36.224Z,17.75
2023-01-09T01:35:07.629Z,17.73
2023-01-09T01:35:39.078Z,17.69
2023-01-09T01:36:10.476Z,17.68
2023-01-09T01:36:41.887Z,17.72
2023-01-09T01:37:13.296Z,17.72
2023-01-09T01:37:44.719Z,17.74
2023-01-09T01:38:16.121Z,17.71
2023-01-09T01:38:47.534Z,17.69
2023-01-09T01:39:18.941Z,17.72
2023-01-09T01:39:50.384Z,17.71
2023-01-09T01:40:21.784Z,17.71
2023-01-09T01:40:53.349Z,17.70
2023-01-09T01:41:24.751Z,17.69
2023-01-09T01:41:56.165Z,17.68
2023-01-09T01:42:27.580Z,17.68
2023-01-09T01:42:58.990Z,17.66
2023-01-09T01:43:30.402Z,17.69
2023-01-09T01:44:01.791Z,17.66
2023-01-09T01:44:33.200Z,17.64
2023-01-09T01:45:04.611Z,17.65
2023-01-09T01:45:36.033Z,17.65
2023-01-09T01:46:07.557Z,17.67
2023-01-09T01:46:39.068Z,17.68
2023-01-09T01:47:10.466Z,17.67
2023-01-09T01:47:41.883Z,17.69
2023-01-09T01:48:13.315Z,17.69
2023-01-09T01:48:44.810Z,17.68
2023-01-09T01:49:16.219Z,17.65
2023-01-09T01:49:47.609Z,17.64
2023-01-09T01:50:19.012Z,17.66
2023-01-09T01:50:50.532Z,17.63
2023-01-09T01:51:22.060Z,17.63
2023-01-09T01:51:53.458Z,17.62
2023-01-09T01:52:24.893Z,17.61
2023-01-09T01:52:56.285Z,17.63
2023-01-09T01:53:27.710Z,17.62
2023-01-09T01:53:59.104Z,17.67
2023-01-09T01:54:30.503Z,17.65
2023-01-09T01:55:01.936Z,17.60
2023-01-09T01:55:33.339Z,17.59
2023-01-09T01:56:04.735Z,17.62
2023-01-09T01:56:36.165Z,17.62
2023-01-09T01:57:07.591Z,17.63
2023-01-09T01:57:39.000Z,17.62
2023-01-09T01:58:10.407Z,17.62
2023-01-09T01:58:41.806Z,17.60
2023-01-09T01:59:13.215Z,17.63
2023-01-09T01:59:44.625Z,17.63
2023-01-09T02:00:16.023Z,17.63
2023-01-09T02:00:47.450Z,17.66
2023-01-09T02:01:19.022Z,17.63
2023-01-09T02:01:50.658Z,17.66
2023-01-09T02:02:22.236Z,17.67
2023-01-09T02:02:53.761Z,17.66
2023-01-09T02:03:25.214Z,17.65
2023-01-09T02:03:56.621Z,17.63
2023-01-09T02:04:28.028Z,17.65
2023-01-09T02:04:59.502Z,17.61
2023-01-09T02:05:30.901Z,17.60
2023-01-09T02:06:02.321Z,17.59
2023-01-09T02:06:33.732Z,17.56
2023-01-09T02:07:05.260Z,17.57
2023-01-09T02:07:36.674Z,17.61
2023-01-09T02:08:08.066Z,17.64
2023-01-09T02:08:39.475Z,17.65
2023-01-09T02:09:10.891Z,17.63
2023-01-09T02:09:42.293Z,17.65
2023-01-09T02:10:13.694Z,17.63
2023-01-09T02:10:45.107Z,17.60
2023-01-09T02:11:16.530Z,17.60
2023-01-09T02:11:47.928Z,17.60
2023-01-09T02:12:19.418Z,17.60
2023-01-09T02:12:50.813Z,17.61
2023-01-09T02:13:22.211Z,17.62
2023-01-09T02:13:53.616Z,17.63
2023-01-09T02:14:25.014Z,17.63
2023-01-09T02:14:56.411Z,17.63
2023-01-09T02:15:27.807Z,17.61
2023-01-09T02:15:59.254Z,17.63
2023-01-09T02:16:30.679Z,17.60
2023-01-09T02:17:02.109Z,17.62
2023-01-09T02:17:33.690Z,17.62
2023-01-09T02:18:05.106Z,17.60
2023-01-09T02:18:36.507Z,17.56
2023-01-09T02:19:07.910Z,17.56
2023-01-09T02:19:39.324Z,17.59
2023-01-09T02:20:10.749Z,17.56
2023-01-09T02:20:42.151Z,17.56
2023-01-09T02:21:13.573Z,17.58
2023-01-09T02:21:44.988Z,17.57
2023-01-09T02:22:16.388Z,17.57
2023-01-09T02:22:47.842Z,17.58
2023-01-09T02:23:19.265Z,17.57
2023-01-09T02:23:50.688Z,17.55
2023-01-09T02:24:22.101Z,17.57
2023-01-09T02:24:53.503Z,17.55
2023-01-09T02:25:24.919Z,17.53
2023-01-09T02:25:56.316Z,17.55
2023-01-09T02:26:27.760Z,17.54
2023-01-09T02:26:59.154Z,17.55
2023-01-09T02:27:30.586Z,17.56
2023-01-09T02:28:02.017Z,17.57
2023-01-09T02:28:33.429Z,17.57
2023-01-09T02:29:04.837Z,17.57
2023-01-09T02:29:36.244Z,17.58
2023-01-09T02:30:07.693Z,17.55
2023-01-09T02:30:39.104Z,17.55
2023-01-09T02:31:10.549Z,17.54
2023-01-09T02:31:42.077Z,17.56
2023-01-09T02:32:13.494Z,17.55
2023-01-09T02:32:44.910Z,17.58
2023-01-09T02:33:16.473Z,17.55
2023-01-09T02:33:47.883Z,17.55
2023-01-09T02:34:19.284Z,17.54
2023-01-09T02:34:50.677Z,17.56
2023-01-09T02:35:22.079Z,17.53
2023-01-09T02:35:53.488Z,17.54
2023-01-09T02:36:24.899Z,17.55
2023-01-09T02:36:56.304Z,17.55
2023-01-09T02:37:27.717Z,17.52
2023-01-09T02:37:59.120Z,17.54
2023-01-09T02:38:30.647Z,17.53
2023-01-09T02:39:02.054Z,17.53
2023-01-09T02:39:33.443Z,17.55
2023-01-09T02:40:04.852Z,17.53
2023-01-09T02:40:36.251Z,17.55
2023-01-09T02:41:07.656Z,17.54
2023-01-09T02:41:39.058Z,17.53
2023-01-09T02:42:10.496Z,17.54
2023-01-09T02:42:41.919Z,17.53
2023-01-09T02:43:13.357Z,17.53
2023-01-09T02:43:44.915Z,17.53
2023-01-09T02:44:16.343Z,17.54
2023-01-09T02:44:47.739Z,17.53
2023-01-09T02:45:19.139Z,17.55
2023-01-09T02:45:50.563Z,17.53
2023-01-09T02:46:21.992Z,17.54
2023-01-09T02:46:53.387Z,17.54
2023-01-09T02:47:24.793Z,17.56
2023-01-09T02:47:56.215Z,17.52
2023-01-09T02:48:27.613Z,17.52
2023-01-09T02:48:59.167Z,17.52
2023-01-09T02:49:30.589Z,17.54
2023-01-09T02:50:02.094Z,17.53
2023-01-09T02:50:33.517Z,17.52
2023-01-09T02:51:04.918Z,17.54
2023-01-09T02:51:36.335Z,17.53
2023-01-09T02:52:07.734Z,17.53
2023-01-09T02:52:39.148Z,17.54
2023-01-09T02:53:10.569Z,17.55
2023-01-09T02:53:41.992Z,17.55
2023-01-09T02:54:13.561Z,17.54
2023-01-09T02:54:44.946Z,17.53
2023-01-09T02:55:16.371Z,17.53
2023-01-09T02:55:47.771Z,17.53
2023-01-09T02:56:19.172Z,17.53
2023-01-09T02:56:50.579Z,17.53
2023-01-09T02:57:22.000Z,17.52
2023-01-09T02:57:53.399Z,17.52
2023-01-09T02:58:24.818Z,17.53
2023-01-09T02:58:56.215Z,17.53
2023-01-09T02:59:27.694Z,17.53
2023-01-09T02:59:59.117Z,17.53
2023-01-09T03:00:30.514Z,17.53
2023-01-09T03:01:01.986Z,17.49
2023-01-09T03:01:33.548Z,17.47
2023-01-09T03:02:05.103Z,17.49
2023-01-09T03:02:36.650Z,17.48
2023-01-09T03:03:08.141Z,17.50
2023-01-09T03:03:39.586Z,17.52
2023-01-09T03:04:10.981Z,17.49
2023-01-09T03:04:42.426Z,17.50
2023-01-09T03:05:13.844Z,17.49
2023-01-09T03:05:45.246Z,17.48
2023-01-09T03:06:16.644Z,17.46
2023-01-09T03:06:48.088Z,17.47
2023-01-09T03:07:19.481Z,17.47
2023-01-09T03:07:50.896Z,17.48
2023-01-09T03:08:22.296Z,17.48
2023-01-09T03:08:53.712Z,17.45
2023-01-09T03:09:25.117Z,17.44
2023-01-09T03:09:56.642Z,17.44
2023-01-09T03:10:28.038Z,17.44
2023-01-09T03:10:59.448Z,17.45
2023-01-09T03:11:30.859Z,17.46
2023-01-09T03:12:02.254Z,17.45
2023-01-09T03:12:33.669Z,17.43
2023-01-09T03:13:05.081Z,17.45
2023-01-09T03:13:36.477Z,17.47
2023-01-09T03:14:07.878Z,17.47
2023-01-09T03:14:39.273Z,17.45
2023-01-09T03:15:10.828Z,17.46
2023-01-09T03:15:42.234Z,17.47
2023-01-09T03:16:13.667Z,17.47
2023-01-09T03:16:45.074Z,17.48
2023-01-09T03:17:16.466Z,17.45
2023-01-09T03:17:47.909Z,17.42
2023-01-09T03:18:19.318Z,17.43
2023-01-09T03:18:50.723Z,17.43
2023-01-09T03:19:22.123Z,17.43
2023-01-09T03:19:53.541Z,17.42
2023-01-09T03:20:24.986Z,17.42
2023-01-09T03:20:56.384Z,17.42
2023-01-09T03:21:27.840Z,17.41
2023-01-09T03:21:59.245Z,17.40
2023-01-09T03:22:30.657Z,17.42
2023-01-09T03:23:02.071Z,17.42
2023-01-09T03:23:33.469Z,17.42
2023-01-09T03:24:04.880Z,17.42
2023-01-09T03:24:36.272Z,17.42
2023-01-09T03:25:07.713Z,17.42
2023-01-09T03:25:39.134Z,17.43
2023-01-09T03:26:10.525Z,17.41
2023-01-09T03:26:41.935Z,17.42
2023-01-09T03:27:13.338Z,17.41
2023-01-09T03:27:44.733Z,17.40
2023-01-09T03:28:16.132Z,17.37
2023-01-09T03:28:47.541Z,17.40
2023-01-09T03:29:18.939Z,17.40
2023-01-09T03:29:50.355Z,17.39
2023-01-09T03:30:21.872Z,17.38
2023-01-09T03:30:53.278Z,17.38
2023-01-09T03:31:24.742Z,17.38
2023-01-09T03:31:56.196Z,17.38
2023-01-09T03:32:27.628Z,17.37
2023-01-09T03:32:59.048Z,17.37
2023-01-09T03:33:30.453Z,17.38
2023-01-09T03:34:01.882Z,17.38
2023-01-09T03:34:33.282Z,17.38
2023-01-09T03:35:04.683Z,17.37
2023-01-09T03:35:36.110Z,17.36
2023-01-09T03:36:07.528Z,17.33
2023-01-09T03:36:38.959Z,17.36
2023-01-09T03:37:10.364Z,17.35
2023-01-09T03:37:41.772Z,17.33
2023-01-09T03:38:13.182Z,17.34
2023-01-09T03:38:44.583Z,17.34
2023-01-09T03:39:15.993Z,17.34
2023-01-09T03:39:47.399Z,17.36
2023-01-09T03:40:18.822Z,17.35
2023-01-09T03:40:50.408Z,17.36
2023-01-09T03:41:21.837Z,17.34
2023-01-09T03:41:53.300Z,17.37
2023-01-09T03:42:24.696Z,17.34
2023-01-09T03:42:56.117Z,17.35
2023-01-09T03:43:27.527Z,17.35
2023-01-09T03:43:58.924Z,17.36
2023-01-09T03:44:30.339Z,17.36
2023-01-09T03:45:01.753Z,17.35
2023-01-09T03:45:33.174Z,17.34
2023-01-09T03:46:04.696Z,17.34
2023-01-09T03:46:36.159Z,17.32
2023-01-09T03:47:07.567Z,17.30
2023-01-09T03:47:38.972Z,17.31
2023-01-09T03:48:10.366Z,17.33
2023-01-09T03:48:41.762Z,17.33
2023-01-09T03:49:13.191Z,17.30
2023-01-09T03:49:44.590Z,17.32
2023-01-09T03:50:15.995Z,17.29
2023-01-09T03:50:47.406Z,17.30
2023-01-09T03:51:19.016Z,17.30
2023-01-09T03:51:50.418Z,17.31
2023-01-09T03:52:21.816Z,17.31
2023-01-09T03:52:53.225Z,17.31
2023-01-09T03:53:24.677Z,17.30
2023-01-09T03:53:56.073Z,17.29
2023-01-09T03:54:27.489Z,17.29
2023-01-09T03:54:58.881Z,17.29
2023-01-09T03:55:30.280Z,17.30
2023-01-09T03:56:01.687Z,17.30
2023-01-09T03:56:33.159Z,17.30
2023-01-09T03:57:04.574Z,17.29
2023-01-09T03:57:35.977Z,17.27
2023-01-09T03:58:07.408Z,17.27
2023-01-09T03:58:38.813Z,17.28
2023-01-09T03:59:10.229Z,17.27
2023-01-09T03:59:41.629Z,17.27
2023-01-09T04:00:13.048Z,17.29
2023-01-09T04:00:44.495Z,17.28
2023-01-09T04:01:16.013Z,17.28
2023-01-09T04:01:47.625Z,17.28
2023-01-09T04:02:19.118Z,17.26
2023-01-09T04:02:50.530Z,17.27
2023-01-09T04:03:21.936Z,17.27
2023-01-09T04:03:53.384Z,17.25
2023-01-09T04:04:24.821Z,17.25
2023-01-09T04:04:56.221Z,17.25
2023-01-09T04:05:27.629Z,17.24
2023-01-09T04:05:59.038Z,17.25
2023-01-09T04:06:30.472Z,17.26
2023-01-09T04:07:02.004Z,17.24
2023-01-09T04:07:33.444Z,17.24
2023-01-09T04:08:04.856Z,17.21
2023-01-09T04:08:36.260Z,17.23
2023-01-09T04:09:07.663Z,17.21
2023-01-09T04:09:39.055Z,17.22
2023-01-09T04:10:10.490Z,17.22
2023-01-09T04:10:41.909Z,17.22
2023-01-09T04:11:13.308Z,17.20
2023-01-09T04:11:44.724Z,17.19
2023-01-09T04:12:16.264Z,17.20
2023-01-09T04:12:47.672Z,17.21
2023-01-09T04:13:19.075Z,17.20
2023-01-09T04:13:50.488Z,17.22
2023-01-09T04:14:21.912Z,17.21
2023-01-09T04:14:53.309Z,17.20
2023-01-09T04:15:24.716Z,17.20
2023-01-09T04:15:56.120Z,17.20
2023-01-09T04:16:27.548Z,17.19
2023-01-09T04:16:58.955Z,17.18
2023-01-09T04:17:30.509Z,17.18
2023-01-09T04:18:01.902Z,17.19
2023-01-09T04:18:33.307Z,17.19
2023-01-09T04:19:04.725Z,17.18
2023-01-09T04:19:36.144Z,17.18
2023-01-09T04:20:07.556Z,17.18
2023-01-09T04:20:38.987Z,17.17
2023-01-09T04:21:10.383Z,17.19
2023-01-09T04:21:41.782Z,17.18
2023-01-09T04:22:13.182Z,17.19
2023-01-09T04:22:44.797Z,17.20
2023-01-09T04:23:16.213Z,17.18
2023-01-09T04:23:47.637Z,17.17
2023-01-09T04:24:19.113Z,17.17
2023-01-09T04:24:50.512Z,17.18
2023-01-09T04:25:21.934Z,17.16
2023-01-09T04:25:53.334Z,17.16
2023-01-09T04:26:24.732Z,17.17
2023-01-09T04:26:56.165Z,17.16
2023-01-09T04:27:27.568Z,17.17
2023-01-09T04:27:59.071Z,17.17
2023-01-09T04:28:30.528Z,17.17
2023-01-09T04:29:01.948Z,17.16
2023-01-09T04:29:33.373Z,17.16
2023-01-09T04:30:04.798Z,17.15
2023-01-09T04:30:36.212Z,17.17
2023-01-09T04:31:07.606Z,17.17
2023-01-09T04:31:39.044Z,17.15
2023-01-09T04:32:10.475Z,17.15
2023-01-09T04:32:41.870Z,17.16
2023-01-09T04:33:13.339Z,17.17
2023-01-09T04:33:44.764Z,17.17
2023-01-09T04:34:16.166Z,17.17
2023-01-09T04:34:47.568Z,17.17
2023-01-09T04:35:18.989Z,17.17
2023-01-09T04:35:50.397Z,17.15
2023-01-09T04:36:21.787Z,17.15
2023-01-09T04:36:53.189Z,17.16
2023-01-09T04:37:24.610Z,17.14
2023-01-09T04:37:55.999Z,17.14
2023-01-09T04:38:27.481Z,17.14
2023-01-09T04:38:58.880Z,17.14
2023-01-09T04:39:30.278Z,17.14
2023-01-09T04:40:01.703Z,17.13
2023-01-09T04:40:33.141Z,17.14
2023-01-09T04:41:04.537Z,17.12
2023-01-09T04:41:35.956Z,17.13
2023-01-09T04:42:07.353Z,17.13
2023-01-09T04:42:38.762Z,17.14
2023-01-09T04:43:10.155Z,17.13
2023-01-09T04:43:41.646Z,17.13
2023-01-09T04:44:13.058Z,17.15
2023-01-09T04:44:44.489Z,17.15
2023-01-09T04:45:15.913Z,17.14
2023-01-09T04:45:47.333Z,17.14
2023-01-09T04:46:18.749Z,17.14
2023-01-09T04:46:50.165Z,17.13
2023-01-09T04:47:21.591Z,17.14
2023-01-09T04:47:52.985Z,17.14
2023-01-09T04:48:24.387Z,17.13
2023-01-09T04:48:55.934Z,17.14
2023-01-09T04:49:27.334Z,17.13
2023-01-09T04:49:58.747Z,17.12
2023-01-09T04:50:31.461Z,17.12
2023-01-09T04:51:02.946Z,17.13
2023-01-09T04:51:34.347Z,17.13
2023-01-09T04:52:05.762Z,17.12
2023-01-09T04:52:38.935Z,17.12
2023-01-09T04:53:10.527Z,17.12
2023-01-09T04:53:41.931Z,17.12
2023-01-09T04:54:13.455Z,17.11
2023-01-09T04:54:44.859Z,17.08
2023-01-09T04:55:16.279Z,17.07
2023-01-09T04:55:47.703Z,17.08
2023-01-09T04:56:19.119Z,17.09
2023-01-09T04:56:50.543Z,17.07
2023-01-09T04:57:21.945Z,17.09
2023-01-09T04:57:53.375Z,17.07
2023-01-09T04:58:24.791Z,17.07
2023-01-09T04:58:56.230Z,17.07
2023-01-09T04:59:27.651Z,17.07
2023-01-09T04:59:59.047Z,17.07
2023-01-09T05:00:30.462Z,17.05
2023-01-09T05:01:01.946Z,17.05
2023-01-09T05:01:33.534Z,17.05
2023-01-09T05:02:05.112Z,17.05
2023-01-09T05:02:36.599Z,17.05
2023-01-09T05:03:08.018Z,17.04
2023-01-09T05:03:39.418Z,17.03
2023-01-09T05:04:10.847Z,17.03
2023-01-09T05:04:42.279Z,17.03
2023-01-09T05:05:13.693Z,17.04
2023-01-09T05:05:45.089Z,17.04
2023-01-09T05:06:16.508Z,17.03
2023-01-09T05:06:47.936Z,17.03
2023-01-09T05:07:19.351Z,17.02
2023-01-09T05:07:50.777Z,17.02
2023-01-09T05:08:22.191Z,17.01
2023-01-09T05:08:53.593Z,17.00
2023-01-09T05:09:24.997Z,17.01
2023-01-09T05:09:56.409Z,17.01
2023-01-09T05:10:27.827Z,17.03
2023-01-09T05:10:59.231Z,17.02
2023-01-09T05:11:30.642Z,17.04
2023-01-09T05:12:02.241Z,17.03
2023-01-09T05:12:33.652Z,17.03
2023-01-09T05:13:05.049Z,17.01
2023-01-09T05:13:36.471Z,17.02
2023-01-09T05:14:07.872Z,17.01
2023-01-09T05:14:39.285Z,17.03
2023-01-09T05:15:10.692Z,17.01
2023-01-09T05:15:42.091Z,17.02
2023-01-09T05:16:13.509Z,17.01
2023-01-09T05:16:44.992Z,17.02
2023-01-09T05:17:16.466Z,17.03
2023-01-09T05:17:47.861Z,17.02
2023-01-09T05:18:19.261Z,17.02
2023-01-09T05:18:50.669Z,17.02
2023-01-09T05:19:22.058Z,17.02
2023-01-09T05:19:53.479Z,17.00
2023-01-09T05:20:24.894Z,17.02
2023-01-09T05:20:56.301Z,17.00
2023-01-09T05:21:27.699Z,17.00
2023-01-09T05:21:59.115Z,17.00
2023-01-09T05:22:30.555Z,16.99
2023-01-09T05:23:01.962Z,17.00
2023-01-09T05:23:33.359Z,16.99
2023-01-09T05:24:04.786Z,17.00
2023-01-09T05:24:36.186Z,16.99
2023-01-09T05:25:07.595Z,16.99
2023-01-09T05:25:39.010Z,16.98
2023-01-09T05:26:10.413Z,16.98
2023-01-09T05:26:41.822Z,16.97
2023-01-09T05:27:13.214Z,16.98
2023-01-09T05:27:44.691Z,16.97
2023-01-09T05:28:16.108Z,16.97
2023-01-09T05:28:47.564Z,16.96
2023-01-09T05:29:18.967Z,16.97
2023-01-09T05:29:50.370Z,16.98
2023-01-09T05:30:21.777Z,16.98
2023-01-09T05:30:53.186Z,16.98
2023-01-09T05:31:24.637Z,16.98
2023-01-09T05:31:56.087Z,16.98
2023-01-09T05:32:27.542Z,16.97
2023-01-09T05:32:59.054Z,16.98
2023-01-09T05:33:30.449Z,16.99
2023-01-09T05:34:01.862Z,16.98
2023-01-09T05:34:33.288Z,16.98
2023-01-09T05:35:04.701Z,16.98
2023-01-09T05:35:36.126Z,16.99
2023-01-09T05:36:07.553Z,16.98
2023-01-09T05:36:38.951Z,16.99
2023-01-09T05:37:10.355Z,16.99
2023-01-09T05:37:41.782Z,17.00
2023-01-09T05:38:13.336Z,17.00
2023-01-09T05:38:44.746Z,16.99
2023-01-09T05:39:16.140Z,16.99
2023-01-09T05:39:47.532Z,16.99
2023-01-09T05:40:18.927Z,16.98
2023-01-09T05:40:50.345Z,16.98
2023-01-09T05:41:24.142Z,16.99
2023-01-09T05:41:55.659Z,16.99
2023-01-09T05:42:27.083Z,16.99
2023-01-09T05:42:58.492Z,17.00
2023-01-09T05:43:29.931Z,17.00
2023-01-09T05:44:01.335Z,16.98
2023-01-09T05:44:32.749Z,17.00
2023-01-09T05:45:04.162Z,17.00
2023-01-09T05:45:35.618Z,17.00
2023-01-09T05:46:07.141Z,17.00
2023-01-09T05:46:38.625Z,17.01
2023-01-09T05:47:10.037Z,17.00
2023-01-09T05:47:41.446Z,17.00
2023-01-09T05:48:13.027Z,17.00
2023-01-09T05:48:44.451Z,17.00
2023-01-09T05:49:15.863Z,17.01
2023-01-09T05:49:47.275Z,17.02
2023-01-09T05:50:18.675Z,17.01
2023-01-09T05:50:50.074Z,17.01
2023-01-09T05:51:21.461Z,17.01
2023-01-09T05:51:52.878Z,17.02
2023-01-09T05:52:24.364Z,17.02
2023-01-09T05:52:55.779Z,17.02
2023-01-09T05:53:27.236Z,17.02
2023-01-09T05:53:58.661Z,17.03
2023-01-09T05:54:30.064Z,17.03
2023-01-09T05:55:01.481Z,17.02
2023-01-09T05:55:33.001Z,17.02
2023-01-09T05:56:04.405Z,17.03
2023-01-09T05:56:35.831Z,17.02
2023-01-09T05:57:07.225Z,17.04
2023-01-09T05:57:38.645Z,17.03
2023-01-09T05:58:10.068Z,17.03
2023-01-09T05:58:41.615Z,17.04
2023-01-09T05:59:13.032Z,17.04
2023-01-09T05:59:44.423Z,17.04
2023-01-09T06:00:15.835Z,17.04
2023-01-09T06:00:47.281Z,17.04
2023-01-09T06:01:18.732Z,17.04
2023-01-09T06:01:50.208Z,17.04
2023-01-09T06:02:21.790Z,17.05
2023-01-09T06:02:53.283Z,17.04
2023-01-09T06:03:24.714Z,17.04
2023-01-09T06:03:56.191Z,17.04
2023-01-09T06:04:27.608Z,17.05
2023-01-09T06:04:59.025Z,17.05
2023-01-09T06:05:30.429Z,17.04
2023-01-09T06:06:01.863Z,17.05
2023-01-09T06:06:33.266Z,17.05
2023-01-09T06:07:04.663Z,17.05
2023-01-09T06:07:36.068Z,17.05
2023-01-09T06:08:07.480Z,17.05
2023-01-09T06:08:38.893Z,17.05
2023-01-09T06:09:10.338Z,17.07
2023-01-09T06:09:41.733Z,17.05
2023-01-09T06:10:13.162Z,17.06
2023-01-09T06:10:44.574Z,17.05
2023-01-09T06:11:15.981Z,17.06
2023-01-09T06:11:47.394Z,17.07
2023-01-09T06:12:18.818Z,17.07
2023-01-09T06:12:50.244Z,17.06
2023-01-09T06:13:21.654Z,17.05
2023-01-09T06:13:53.059Z,17.07
2023-01-09T06:14:24.603Z,17.07
2023-01-09T06:14:56.009Z,17.07
2023-01-09T06:15:27.550Z,17.05
2023-01-09T06:15:59.046Z,17.07
2023-01-09T06:16:30.451Z,17.07
2023-01-09T06:17:01.869Z,17.06
2023-01-09T06:17:33.326Z,17.07
2023-01-09T06:18:04.750Z,17.06
2023-01-09T06:18:36.149Z,17.05
2023-01-09T06:19:07.626Z,17.05
2023-01-09T06:19:39.016Z,17.05
2023-01-09T06:20:10.428Z,17.04
2023-01-09T06:20:41.847Z,17.04
2023-01-09T06:21:13.247Z,17.05
2023-01-09T06:21:44.667Z,17.05
2023-01-09T06:22:16.072Z,17.06
2023-01-09T06:22:47.483Z,17.07
2023-01-09T06:23:18.893Z,17.06
2023-01-09T06:23:50.335Z,17.07
2023-01-09T06:24:21.800Z,17.08
2023-01-09T06:24:53.218Z,17.07
2023-01-09T06:25:24.628Z,17.06
2023-01-09T06:25:56.039Z,17.08
2023-01-09T06:26:27.466Z,17.07
2023-01-09T06:26:58.853Z,17.08
2023-01-09T06:27:30.257Z,17.07
2023-01-09T06:28:01.659Z,17.07
2023-01-09T06:28:33.060Z,17.07
2023-01-09T06:29:04.453Z,17.07
2023-01-09T06:29:35.973Z,17.07
2023-01-09T06:30:07.392Z,17.08
2023-01-09T06:30:38.850Z,17.07
2023-01-09T06:31:10.331Z,17.08
2023-01-09T06:31:41.749Z,17.07
2023-01-09T06:32:13.151Z,17.07
2023-01-09T06:32:44.549Z,17.07
2023-01-09T06:33:15.946Z,17.08
2023-01-09T06:33:47.342Z,17.05
2023-01-09T06:34:18.743Z,17.04
2023-01-09T06:34:50.310Z,17.04
2023-01-09T06:35:21.711Z,17.04
2023-01-09T06:35:53.130Z,17.05
2023-01-09T06:36:24.545Z,17.04
2023-01-09T06:36:55.941Z,17.03
2023-01-09T06:37:27.345Z,17.03
2023-01-09T06:37:58.742Z,17.03
2023-01-09T06:38:30.142Z,17.04
2023-01-09T06:39:01.541Z,17.05
2023-01-09T06:39:32.951Z,17.07
2023-01-09T06:40:04.400Z,17.05
2023-01-09T06:40:35.826Z,17.03
2023-01-09T06:41:07.228Z,17.04
2023-01-09T06:41:38.648Z,17.03
2023-01-09T06:42:10.677Z,17.03
2023-01-09T06:42:42.079Z,17.04
2023-01-09T06:43:13.511Z,17.03
2023-01-09T06:43:44.929Z,17.05
2023-01-09T06:44:16.364Z,17.04
2023-01-09T06:44:47.759Z,17.07